Time;durP1;ratioP1;P1;durP2;ratioP2;P2;SDS_P1;SDS_P2;PMS_P1;PMS_P2;Temp;Humidity;BMP_temperature;BMP_pressure;BME280_temperature;BME280_humidity;BME280_pressure;Samples;Min_cycle;Max_cycle;Signal;HPM_P1;HPM_P2
2021/07/06 00:01:49;;;;;;;1.20;1.20;;;;;17.30;99899.00;;;;10473284;28;20197;-78
2021/07/06 00:06:51;;;;;;;4.53;1.20;;;;;17.20;99880.00;;;;10504901;28;20189;-79
2021/07/06 00:11:53;;;;;;;3.60;1.23;;;;;17.10;99878.00;;;;10471138;28;20177;-79
2021/07/06 00:16:54;;;;;;;1.50;1.40;;;;;17.10;99880.00;;;;10470009;28;20608;-79
2021/07/06 00:21:56;;;;;;;2.13;1.45;;;;;17.10;99863.00;;;;10469087;28;20267;-79
2021/07/06 00:26:58;;;;;;;1.77;1.10;;;;;17.10;99855.00;;;;10466872;28;20266;-78
2021/07/06 00:32:01;;;;;;;2.45;1.65;;;;;17.20;99849.00;;;;10434633;28;20213;-79
2021/07/06 00:37:03;;;;;;;1.98;1.20;;;;;17.20;99837.00;;;;10434818;28;20209;-78
2021/07/06 00:42:09;;;;;;;7.45;1.70;;;;;17.20;99822.00;;;;10467484;28;20255;-78
2021/07/06 00:47:11;;;;;;;5.65;1.42;;;;;17.30;99826.00;;;;10451239;28;20196;-78
2021/07/06 00:52:13;;;;;;;2.28;1.30;;;;;17.30;99819.00;;;;10452787;28;20193;-79
2021/07/06 00:57:15;;;;;;;4.00;1.35;;;;;17.30;99803.00;;;;10500436;28;20204;-79
2021/07/06 01:02:17;;;;;;;2.67;1.20;;;;;17.30;99792.00;;;;10500285;28;20223;-78
2021/07/06 01:07:20;;;;;;;2.70;1.25;;;;;17.30;99788.00;;;;10517219;28;20189;-79
2021/07/06 01:12:22;;;;;;;1.92;1.35;;;;;17.30;99780.00;;;;10516640;28;20556;-79
2021/07/06 01:17:28;;;;;;;2.20;1.80;;;;;17.30;99770.00;;;;10499420;28;20284;-79
2021/07/06 01:22:32;;;;;;;3.53;1.45;;;;;17.30;99763.00;;;;10515280;28;20258;-79
2021/07/06 01:27:36;;;;;;;4.93;1.60;;;;;17.30;99756.00;;;;10498639;28;20193;-79
2021/07/06 01:32:42;;;;;;;4.72;1.63;;;;;17.30;99748.00;;;;10457368;28;20671;-78
2021/07/06 01:37:47;;;;;;;3.03;1.60;;;;;17.30;99735.00;;;;10456471;28;20204;-80
2021/07/06 01:42:50;;;;;;;2.63;1.63;;;;;17.20;99730.00;;;;10507862;28;20190;-80
2021/07/06 01:47:55;;;;;;;5.78;1.88;;;;;17.20;99715.00;;;;10456172;28;20189;-78
2021/07/06 01:53:00;;;;;;;3.95;1.98;;;;;17.20;99707.00;;;;10456618;28;20197;-79
2021/07/06 01:58:05;;;;;;;4.10;1.55;;;;;17.20;99679.00;;;;10489562;28;20213;-78
2021/07/06 02:03:10;;;;;;;3.58;1.50;;;;;17.20;99672.00;;;;10473253;28;20233;-78
2021/07/06 02:08:15;;;;;;;4.78;1.77;;;;;17.20;99647.00;;;;10471992;28;20186;-78
2021/07/06 02:13:23;;;;;;;1.30;1.20;;;;;17.20;99637.00;;;;10472865;28;20241;-78
2021/07/06 02:18:27;;;;;;;4.72;1.65;;;;;17.20;99634.00;;;;10488851;28;20217;-78
2021/07/06 02:23:31;;;;;;;3.75;1.60;;;;;17.20;99638.00;;;;10483862;28;20717;-79
2021/07/06 02:28:34;;;;;;;3.58;2.05;;;;;17.10;99651.00;;;;10530356;28;20193;-80
2021/07/06 02:33:36;;;;;;;4.53;1.60;;;;;17.10;99647.00;;;;10495870;28;20270;-79
2021/07/06 02:38:41;;;;;;;3.55;1.70;;;;;17.10;99641.00;;;;10495543;28;20200;-79
2021/07/06 02:43:43;;;;;;;3.22;1.80;;;;;17.00;99641.00;;;;10529644;28;20193;-79
2021/07/06 02:48:45;;;;;;;3.58;1.60;;;;;17.00;99659.00;;;;10513025;28;20635;-78
2021/07/06 02:53:47;;;;;;;7.10;1.60;;;;;17.10;99657.00;;;;10479849;28;20204;-78
2021/07/06 02:58:48;;;;;;;3.67;1.70;;;;;17.10;99647.00;;;;10495750;28;20205;-79
2021/07/06 03:03:50;;;;;;;2.47;1.60;;;;;17.20;99636.00;;;;10511553;28;20230;-78
2021/07/06 03:08:54;;;;;;;5.13;1.80;;;;;17.20;99638.00;;;;10511610;28;20189;-80
2021/07/06 03:13:55;;;;;;;2.90;1.90;;;;;17.10;99643.00;;;;10511335;28;20221;-80
2021/07/06 03:18:57;;;;;;;2.85;1.83;;;;;17.20;99640.00;;;;10493541;28;20697;-79
2021/07/06 03:23:59;;;;;;;4.22;1.70;;;;;17.20;99639.00;;;;10495167;28;20197;-79
2021/07/06 03:29:01;;;;;;;2.42;2.00;;;;;17.20;99647.00;;;;10468838;28;20181;-79
2021/07/06 03:34:03;;;;;;;5.53;1.63;;;;;17.20;99647.00;;;;10469125;28;20271;-78
2021/07/06 03:39:05;;;;;;;2.55;1.63;;;;;17.20;99663.00;;;;10468826;28;20202;-79
2021/07/06 03:44:13;;;;;;;4.00;1.95;;;;;17.30;99664.00;;;;10495956;28;21071;-79
2021/07/06 03:49:15;;;;;;;3.90;1.83;;;;;17.40;99665.00;;;;10478584;28;20194;-79
2021/07/06 03:54:17;;;;;;;2.53;1.60;;;;;17.40;99676.00;;;;10478043;28;20228;-79
2021/07/06 03:59:18;;;;;;;2.35;1.60;;;;;17.50;99682.00;;;;10477705;28;20202;-78
2021/07/06 04:04:20;;;;;;;5.75;1.80;;;;;17.60;99677.00;;;;10461147;28;20212;-79
2021/07/06 04:09:22;;;;;;;6.22;1.95;;;;;17.70;99713.00;;;;10494002;28;20205;-79
2021/07/06 04:14:24;;;;;;;3.22;1.70;;;;;17.90;99708.00;;;;10437543;28;20206;-79
2021/07/06 04:19:26;;;;;;;5.88;2.10;;;;;18.00;99717.00;;;;10435301;28;20186;-79
2021/07/06 04:24:30;;;;;;;3.55;1.80;;;;;18.10;99728.00;;;;10491502;28;20205;-79
2021/07/06 04:29:31;;;;;;;3.67;1.77;;;;;18.20;99714.00;;;;10458605;28;20247;-78
2021/07/06 04:34:34;;;;;;;2.90;1.80;;;;;18.30;99705.00;;;;10451833;28;20312;-79
2021/07/06 04:39:36;;;;;;;1.67;1.58;;;;;18.40;99699.00;;;;10458216;28;20209;-78
2021/07/06 04:44:39;;;;;;;2.88;1.90;;;;;18.50;99693.00;;;;10451274;28;20277;-79
2021/07/06 04:49:40;;;;;;;3.60;1.98;;;;;18.50;99689.00;;;;10460485;28;20359;-78
2021/07/06 04:54:43;;;;;;;2.13;1.73;;;;;18.60;99694.00;;;;10433998;28;20199;-79
2021/07/06 04:59:44;;;;;;;5.40;1.83;;;;;18.70;99688.00;;;;10428415;28;20213;-78
2021/07/06 05:04:46;;;;;;;2.38;1.70;;;;;18.70;99673.00;;;;10391191;28;20559;-79
2021/07/06 05:09:48;;;;;;;3.42;1.90;;;;;18.80;99678.00;;;;10390889;28;20228;-78
2021/07/06 05:14:50;;;;;;;3.17;2.55;;;;;19.00;99682.00;;;;10389273;28;20222;-79
2021/07/06 05:19:53;;;;;;;4.07;1.95;;;;;19.20;99656.00;;;;10405939;28;20963;-79
2021/07/06 05:24:55;;;;;;;2.95;1.90;;;;;19.40;99680.00;;;;10390809;28;20198;-78
2021/07/06 05:29:57;;;;;;;8.85;2.05;;;;;19.40;99682.00;;;;10389366;28;20191;-78
2021/07/06 05:34:59;;;;;;;3.15;1.70;;;;;19.50;99678.00;;;;10424263;28;20210;-79
2021/07/06 05:40:07;;;;;;;7.43;1.80;;;;;19.50;99696.00;;;;10429692;28;20257;-79
2021/07/06 05:45:11;;;;;;;1.95;1.27;;;;;19.60;99699.00;;;;10430356;28;20221;-78
2021/07/06 05:50:15;;;;;;;2.53;1.30;;;;;19.80;99697.00;;;;10430200;28;20190;-79
2021/07/06 05:55:17;;;;;;;3.70;1.27;;;;;19.90;99697.00;;;;10446247;28;20187;-79
2021/07/06 06:00:19;;;;;;;3.45;1.10;;;;;19.80;99690.00;;;;10414293;28;20215;-79
2021/07/06 06:05:22;;;;;;;2.88;1.17;;;;;19.50;99698.00;;;;10421963;28;20187;-79
2021/07/06 06:10:24;;;;;;;4.47;1.20;;;;;19.40;99695.00;;;;10421078;28;20191;-78
2021/07/06 06:15:26;;;;;;;2.75;1.15;;;;;19.60;99692.00;;;;10404768;28;20195;-79
2021/07/06 06:20:28;;;;;;;4.00;1.77;;;;;19.50;99704.00;;;;10404199;28;20249;-79
2021/07/06 06:25:31;;;;;;;2.97;1.30;;;;;19.30;99716.00;;;;10387753;28;20244;-79
2021/07/06 06:30:33;;;;;;;2.80;1.00;;;;;19.40;99717.00;;;;10386632;28;20593;-79
2021/07/06 06:35:35;;;;;;;2.30;0.75;;;;;19.70;99728.00;;;;10413590;28;20253;-80
2021/07/06 06:40:37;;;;;;;2.65;1.10;;;;;19.90;99737.00;;;;10402391;28;20571;-78
2021/07/06 06:45:39;;;;;;;5.75;1.20;;;;;20.00;99748.00;;;;10386685;28;20220;-79
2021/07/06 06:50:41;;;;;;;6.82;1.42;;;;;19.80;99753.00;;;;10386828;28;20229;-79
2021/07/06 06:55:42;;;;;;;8.20;1.50;;;;;19.90;99754.00;;;;10418759;28;20186;-79
2021/07/06 07:00:44;;;;;;;7.03;1.10;;;;;20.10;99752.00;;;;10414684;28;20206;-78
2021/07/06 07:05:47;;;;;;;4.80;0.90;;;;;20.80;99759.00;;;;10459439;28;20285;-79
2021/07/06 07:10:50;;;;;;;5.47;1.13;;;;;21.90;99737.00;;;;10426820;28;20186;-79
2021/07/06 07:15:52;;;;;;;4.07;1.33;;;;;22.80;99745.00;;;;10408563;28;20724;-78
2021/07/06 07:20:54;;;;;;;7.78;1.33;;;;;23.40;99743.00;;;;10402491;28;20221;-78
2021/07/06 07:25:56;;;;;;;4.72;1.38;;;;;23.40;99732.00;;;;10449140;28;20200;-78
2021/07/06 07:30:58;;;;;;;4.95;1.25;;;;;23.60;99735.00;;;;10441931;28;20195;-78
2021/07/06 07:36:01;;;;;;;4.60;1.27;;;;;23.40;99738.00;;;;10417693;28;20260;-77
2021/07/06 07:41:04;;;;;;;6.10;1.60;;;;;23.20;99724.00;;;;10384974;28;20222;-78
2021/07/06 07:46:09;;;;;;;6.70;1.55;;;;;23.00;99747.00;;;;10437860;28;20198;-78
2021/07/06 07:51:11;;;;;;;4.32;1.40;;;;;23.00;99743.00;;;;10442416;28;20569;-78
2021/07/06 07:56:13;;;;;;;3.53;0.93;;;;;22.90;99748.00;;;;10477975;28;20614;-79
2021/07/06 08:01:15;;;;;;;3.08;1.02;;;;;23.30;99745.00;;;;10432201;28;20280;-79
2021/07/06 08:06:17;;;;;;;5.03;1.20;;;;;23.50;99753.00;;;;10441677;28;20190;-79
2021/07/06 08:11:19;;;;;;;3.75;0.98;;;;;23.40;99745.00;;;;10424871;28;20240;-79
2021/07/06 08:16:21;;;;;;;6.30;1.25;;;;;22.40;99766.00;;;;10409013;28;20704;-79
2021/07/06 08:21:23;;;;;;;4.63;1.05;;;;;22.40;99760.00;;;;10440830;28;20210;-78
2021/07/06 08:26:24;;;;;;;4.15;1.25;;;;;23.40;99757.00;;;;10442891;28;20612;-79
2021/07/06 08:31:26;;;;;;;4.15;1.00;;;;;23.20;99765.00;;;;10448867;28;20194;-78
2021/07/06 08:36:28;;;;;;;4.18;1.00;;;;;24.40;99771.00;;;;10448320;28;20225;-77
2021/07/06 08:41:30;;;;;;;9.38;1.58;;;;;24.50;99778.00;;;;10464772;28;20623;-78
2021/07/06 08:46:36;;;;;;;6.57;1.27;;;;;25.00;99807.00;;;;10454937;28;20202;-78
2021/07/06 08:51:41;;;;;;;6.18;1.83;;;;;23.90;99830.00;;;;10424724;28;20603;-78
2021/07/06 08:56:43;;;;;;;9.43;2.00;;;;;22.60;99839.00;;;;10410824;28;20592;-80
2021/07/06 09:02:02;;;;;;;7.90;1.63;;;;;22.50;99855.00;;;;10440535;28;20207;-78
2021/07/06 09:07:04;;;;;;;14.38;1.65;;;;;22.50;99850.00;;;;10424820;28;20218;-79
2021/07/06 09:12:08;;;;;;;6.78;1.55;;;;;23.30;99875.00;;;;10406800;28;20191;-78
2021/07/06 09:17:15;;;;;;;10.32;1.83;;;;;23.50;99856.00;;;;10407302;28;20199;-79
2021/07/06 09:22:26;;;;;;;5.70;1.40;;;;;23.70;99865.00;;;;10439131;28;20658;-79
2021/07/06 09:27:39;;;;;;;7.93;1.85;;;;;23.30;99880.00;;;;10390815;28;20187;-79
2021/07/06 09:32:44;;;;;;;6.03;1.50;;;;;21.90;99879.00;;;;10406300;28;20229;-79
2021/07/06 09:37:54;;;;;;;5.88;1.40;;;;;22.00;99853.00;;;;10405171;28;20190;-78
2021/07/06 09:43:28;;;;;;;8.32;1.42;;;;;24.10;99876.00;;;;10389589;28;20219;-77
2021/07/06 09:48:32;;;;;;;5.57;1.50;;;;;24.40;99874.00;;;;10423510;28;20190;-78
2021/07/06 09:53:34;;;;;;;6.80;1.70;;;;;24.80;99883.00;;;;10417463;28;20203;-79
2021/07/06 09:59:14;;;;;;;6.57;1.77;;;;;25.70;99895.00;;;;10437024;28;20195;-77
2021/07/06 10:04:16;;;;;;;5.60;1.48;;;;;26.20;99905.00;;;;10386579;28;20284;-79
2021/07/06 10:09:19;;;;;;;9.30;1.50;;;;;25.80;99914.00;;;;10404751;28;20187;-79
2021/07/06 10:14:21;;;;;;;4.90;1.20;;;;;26.70;99927.00;;;;10413489;28;20194;-79
2021/07/06 10:19:24;;;;;;;5.32;1.30;;;;;27.40;99908.00;;;;10410500;28;20212;-78
2021/07/06 10:24:26;;;;;;;5.65;1.52;;;;;28.80;99936.00;;;;10420304;28;20264;-79
2021/07/06 10:29:32;;;;;;;9.35;1.77;;;;;28.70;99932.00;;;;10411404;28;20206;-79
2021/07/06 10:34:43;;;;;;;6.50;1.30;;;;;28.70;99943.00;;;;10411843;28;20210;-78
2021/07/06 10:39:46;;;;;;;8.95;1.95;;;;;26.40;99966.00;;;;10445251;28;20223;-79
2021/07/06 10:44:47;;;;;;;6.35;1.73;;;;;24.80;99961.00;;;;10412157;28;20220;-78
2021/07/06 10:49:54;;;;;;;5.28;1.58;;;;;23.90;99962.00;;;;10428135;28;20190;-78
2021/07/06 10:54:56;;;;;;;7.72;1.17;;;;;23.30;99964.00;;;;10466976;28;20598;-78
2021/07/06 10:59:58;;;;;;;7.43;1.23;;;;;23.80;99969.00;;;;10436084;28;20668;-78
2021/07/06 11:05:02;;;;;;;8.00;1.52;;;;;24.10;99969.00;;;;10451413;28;20257;-78
2021/07/06 11:10:07;;;;;;;5.20;1.42;;;;;25.30;99974.00;;;;10435032;28;20526;-79
2021/07/06 11:15:27;;;;;;;6.10;1.98;;;;;26.40;99976.00;;;;10467587;28;20694;-78
2021/07/06 11:20:39;;;;;;;5.97;1.30;;;;;27.00;99955.00;;;;10484011;28;20193;-78
2021/07/06 11:25:43;;;;;;;4.57;1.30;;;;;27.90;99972.00;;;;10442321;28;20784;-78
2021/07/06 11:30:46;;;;;;;5.15;1.33;;;;;28.30;99979.00;;;;10480083;28;20235;-78
2021/07/06 11:35:58;;;;;;;5.25;1.50;;;;;28.40;99979.00;;;;10501001;28;20221;-78
2021/07/06 11:41:01;;;;;;;5.80;1.50;;;;;28.30;99967.00;;;;10466964;28;20228;-79
2021/07/06 11:46:09;;;;;;;6.35;1.55;;;;;29.20;99984.00;;;;10466544;28;20538;-79
2021/07/06 11:51:13;;;;;;;4.35;1.45;;;;;28.60;99999.00;;;;10465954;28;20193;-79
2021/07/06 11:56:15;;;;;;;6.03;0.98;;;;;26.90;100019.00;;;;10466991;28;20224;-79
2021/07/06 12:01:18;;;;;;;5.53;1.40;;;;;25.70;100011.00;;;;10467208;28;20209;-78
2021/07/06 12:06:21;;;;;;;5.05;1.25;;;;;25.30;100029.00;;;;10435430;28;20668;-77
2021/07/06 12:11:25;;;;;;;4.68;1.20;;;;;24.60;100027.00;;;;10458802;28;20552;-78
2021/07/06 12:16:36;;;;;;;5.70;1.10;;;;;24.20;100049.00;;;;10454775;28;20202;-77
2021/07/06 12:21:46;;;;;;;6.10;1.30;;;;;23.60;100042.00;;;;10432407;28;20217;-77
2021/07/06 12:26:50;;;;;;;3.28;1.20;;;;;24.60;100046.00;;;;10432236;28;20190;-79
2021/07/06 12:31:53;;;;;;;9.80;1.63;;;;;24.00;100068.00;;;;10432204;28;20213;-78
2021/07/06 12:36:58;;;;;;;4.00;1.27;;;;;23.70;100081.00;;;;10432512;28;20277;-78
2021/07/06 12:42:03;;;;;;;5.22;1.30;;;;;23.30;100083.00;;;;10457367;28;20217;-77
2021/07/06 12:47:23;;;;;;;8.32;1.40;;;;;24.80;100091.00;;;;10472782;28;20189;-78
2021/07/06 12:52:47;;;;;;;8.55;1.58;;;;;25.80;100088.00;;;;10454262;28;20205;-78
2021/07/06 12:57:54;;;;;;;4.20;1.45;;;;;26.80;100095.00;;;;10430845;28;20198;-78
2021/07/06 13:03:12;;;;;;;3.35;1.20;;;;;27.40;100092.00;;;;10480239;28;20274;-77
2021/07/06 13:08:25;;;;;;;4.72;1.38;;;;;27.50;100085.00;;;;10472371;28;20193;-78
2021/07/06 13:13:33;;;;;;;4.55;1.02;;;;;27.30;100107.00;;;;10461619;28;20198;-77
2021/07/06 13:18:37;;;;;;;4.18;1.23;;;;;26.20;100101.00;;;;10414218;28;20198;-77
2021/07/06 13:23:41;;;;;;;5.65;1.15;;;;;24.90;100109.00;;;;10426349;28;20216;-77
2021/07/06 13:28:47;;;;;;;3.15;1.17;;;;;24.10;100130.00;;;;10454892;28;20251;-77
2021/07/06 13:33:49;;;;;;;9.18;2.22;;;;;22.60;100143.00;;;;10453587;28;20206;-77
2021/07/06 13:39:03;;;;;;;3.55;1.20;;;;;23.30;100118.00;;;;10446541;28;20194;-77
2021/07/06 13:44:05;;;;;;;2.83;1.10;;;;;25.00;100144.00;;;;10428779;28;20226;-77
2021/07/06 13:49:07;;;;;;;5.15;1.45;;;;;27.70;100152.00;;;;10446056;28;20178;-78
2021/07/06 13:54:16;;;;;;;15.00;1.85;;;;;27.40;100161.00;;;;10397299;28;20194;-78
2021/07/06 13:59:18;;;;;;;5.93;1.48;;;;;28.30;100160.00;;;;10463136;28;20281;-78
2021/07/06 14:04:20;;;;;;;7.18;1.35;;;;;29.00;100173.00;;;;10428919;28;20237;-77
2021/07/06 14:09:22;;;;;;;4.20;1.25;;;;;31.40;100178.00;;;;10412464;28;20194;-78
2021/07/06 14:14:25;;;;;;;2.20;0.80;;;;;32.80;100185.00;;;;10448198;28;20202;-78
2021/07/06 14:19:27;;;;;;;3.70;1.50;;;;;33.80;100178.00;;;;10468039;28;20190;-78
2021/07/06 14:24:29;;;;;;;6.80;2.08;;;;;29.60;100205.00;;;;10459346;28;20210;-78
2021/07/06 14:29:31;;;;;;;4.10;1.80;;;;;27.40;100201.00;;;;10443597;28;20194;-77
2021/07/06 14:34:33;;;;;;;5.85;2.50;;;;;26.00;100199.00;;;;10427800;28;20209;-78
2021/07/06 14:39:35;;;;;;;11.70;4.80;;;;;24.90;100205.00;;;;10427645;28;20206;-78
2021/07/06 14:44:37;;;;;;;6.25;3.22;;;;;23.80;100199.00;;;;10452683;28;20664;-78
2021/07/06 14:49:39;;;;;;;12.90;3.55;;;;;26.00;100216.00;;;;10468856;28;20193;-79
2021/07/06 14:54:41;;;;;;;7.10;2.78;;;;;23.80;100229.00;;;;10468212;28;20197;-77
2021/07/06 14:59:43;;;;;;;9.63;1.00;;;;;22.50;100262.00;;;;10455138;28;20194;-78
2021/07/06 15:04:45;;;;;;;9.73;1.08;;;;;20.80;100303.00;;;;10443105;28;20680;-80
2021/07/06 15:09:47;;;;;;;2.42;1.08;;;;;19.20;100307.00;;;;10446747;28;20191;-80
2021/07/06 15:14:49;;;;;;;1.92;0.63;;;;;19.20;100294.00;;;;10427084;28;20186;-78
2021/07/06 15:19:51;;;;;;;0.90;0.65;;;;;22.70;100261.00;;;;10442950;28;20197;-77
2021/07/06 15:24:53;;;;;;;2.15;0.90;;;;;28.00;100273.00;;;;10472930;28;20205;-77
2021/07/06 15:29:55;;;;;;;1.75;0.65;;;;;26.30;100306.00;;;;10522818;28;20185;-76
2021/07/06 15:34:56;;;;;;;4.53;0.90;;;;;24.80;100285.00;;;;10461898;28;20275;-76
2021/07/06 15:39:59;;;;;;;0.85;0.60;;;;;24.20;100286.00;;;;10450086;28;20653;-77
2021/07/06 15:45:03;;;;;;;1.33;0.80;;;;;27.90;100275.00;;;;10464993;28;20201;-77
2021/07/06 15:50:05;;;;;;;5.47;0.88;;;;;25.20;100313.00;;;;10456691;28;20686;-76
2021/07/06 15:55:08;;;;;;;1.92;0.70;;;;;23.70;100298.00;;;;10407338;28;20194;-76
2021/07/06 16:00:11;;;;;;;3.22;0.80;;;;;21.80;100312.00;;;;10465608;28;20200;-76
2021/07/06 16:05:15;;;;;;;2.28;0.80;;;;;20.70;100310.00;;;;10465911;28;20259;-77
2021/07/06 16:10:18;;;;;;;1.80;0.60;;;;;21.10;100316.00;;;;10481229;28;20203;-77
2021/07/06 16:15:22;;;;;;;2.83;0.80;;;;;21.40;100309.00;;;;10464254;28;20243;-76
2021/07/06 16:20:26;;;;;;;0.98;0.60;;;;;21.40;100330.00;;;;10465185;28;20727;-77
2021/07/06 16:25:27;;;;;;;2.15;0.80;;;;;20.70;100339.00;;;;10466428;28;20263;-77
2021/07/06 16:30:29;;;;;;;5.28;1.00;;;;;20.00;100344.00;;;;10450172;28;20194;-77
2021/07/06 16:35:31;;;;;;;4.72;1.77;;;;;19.80;100353.00;;;;10439475;28;20210;-77
2021/07/06 16:40:43;;;;;;;2.15;0.80;;;;;20.80;100345.00;;;;10439447;28;20203;-77
2021/07/06 16:45:48;;;;;;;2.30;0.70;;;;;20.40;100352.00;;;;10455909;28;20727;-77
2021/07/06 18:01:19;;;;;;;4.60;1.10;;;;;19.50;100459.00;;;;10252112;28;20211;-77
2021/07/06 18:06:33;;;;;;;4.60;1.38;;;;;19.60;100456.00;;;;10378351;28;20198;-77
2021/07/06 18:11:36;;;;;;;6.68;1.40;;;;;19.90;100459.00;;;;10485843;28;20186;-76
2021/07/06 18:16:37;;;;;;;2.95;1.30;;;;;19.60;100459.00;;;;10484697;28;20648;-76
2021/07/06 18:21:39;;;;;;;5.07;1.05;;;;;19.00;100454.00;;;;10459180;28;20209;-77
2021/07/06 18:26:41;;;;;;;5.63;1.42;;;;;18.60;100470.00;;;;10410550;28;20201;-76
2021/07/06 18:31:43;;;;;;;3.75;1.70;;;;;18.40;100477.00;;;;10410176;28;20631;-77
2021/07/06 18:36:45;;;;;;;6.78;1.42;;;;;18.60;100474.00;;;;10435165;28;20197;-77
2021/07/06 18:41:47;;;;;;;2.85;1.20;;;;;18.80;100480.00;;;;10501829;28;20258;-76
2021/07/06 18:46:49;;;;;;;3.22;1.10;;;;;18.50;100485.00;;;;10450080;28;20760;-77
2021/07/06 18:51:55;;;;;;;4.95;1.50;;;;;18.20;100489.00;;;;10466261;28;20189;-77
2021/07/06 18:56:58;;;;;;;4.93;1.50;;;;;18.10;100493.00;;;;10479264;28;20263;-77
2021/07/06 19:02:02;;;;;;;5.85;1.45;;;;;18.00;100490.00;;;;10456788;28;20209;-76
2021/07/06 19:07:04;;;;;;;4.45;1.20;;;;;17.70;100499.00;;;;10449250;28;20193;-77
2021/07/06 19:12:06;;;;;;;3.33;1.27;;;;;17.60;100494.00;;;;10481967;28;20196;-77
2021/07/06 19:17:09;;;;;;;3.63;1.17;;;;;17.60;100506.00;;;;10499713;28;20200;-77
2021/07/06 19:22:10;;;;;;;7.45;1.80;;;;;17.30;100520.00;;;;10431801;28;20216;-76
2021/07/06 19:27:14;;;;;;;3.60;1.42;;;;;17.10;100518.00;;;;10407348;28;20187;-77
2021/07/06 19:32:16;;;;;;;4.13;1.25;;;;;16.90;100535.00;;;;10440331;28;20684;-77
2021/07/06 19:37:20;;;;;;;4.18;1.40;;;;;16.70;100535.00;;;;10439437;28;20260;-76
2021/07/06 19:42:22;;;;;;;2.35;1.10;;;;;16.50;100537.00;;;;10439910;28;20218;-76
2021/07/06 19:47:24;;;;;;;3.97;1.58;;;;;16.30;100546.00;;;;10439486;28;20197;-76
2021/07/06 19:52:26;;;;;;;2.13;1.30;;;;;16.20;100557.00;;;;10439925;28;20240;-77
2021/07/06 19:57:28;;;;;;;3.70;1.63;;;;;16.10;100562.00;;;;10423220;28;20232;-76
2021/07/06 20:02:30;;;;;;;3.40;1.83;;;;;16.00;100558.00;;;;10406451;28;20224;-77
2021/07/06 20:07:32;;;;;;;8.63;1.70;;;;;15.90;100570.00;;;;10439796;28;20645;-77
2021/07/06 20:12:34;;;;;;;3.57;1.80;;;;;15.80;100573.00;;;;10406198;28;20641;-77
2021/07/06 20:17:36;;;;;;;4.90;1.67;;;;;15.80;100577.00;;;;10391288;28;20534;-77
2021/07/06 20:22:38;;;;;;;3.13;1.40;;;;;15.70;100589.00;;;;10414592;28;20225;-77
2021/07/06 20:27:40;;;;;;;2.93;1.57;;;;;15.60;100593.00;;;;10487976;28;20198;-77
2021/07/06 20:32:42;;;;;;;7.50;1.90;;;;;15.50;100607.00;;;;10471421;28;20684;-77
2021/07/06 20:37:44;;;;;;;5.13;1.67;;;;;15.50;100613.00;;;;10471474;28;20190;-76
2021/07/06 20:42:47;;;;;;;5.90;1.80;;;;;15.50;100621.00;;;;10505107;28;20734;-76
2021/07/06 20:47:49;;;;;;;6.60;2.50;;;;;15.40;100613.00;;;;10454083;28;20557;-76
2021/07/06 20:52:51;;;;;;;5.00;1.57;;;;;15.30;100616.00;;;;10432245;28;20534;-76
2021/07/06 20:57:54;;;;;;;4.87;1.60;;;;;15.30;100619.00;;;;10445179;28;20194;-76
2021/07/06 21:02:56;;;;;;;5.57;1.77;;;;;15.30;100627.00;;;;10445321;28;20213;-76
2021/07/06 21:07:59;;;;;;;5.63;1.50;;;;;15.20;100621.00;;;;10428634;28;20194;-76
2021/07/06 21:13:01;;;;;;;4.00;1.47;;;;;15.10;100621.00;;;;10428290;28;20236;-76
2021/07/06 21:18:04;;;;;;;3.27;1.50;;;;;15.10;100614.00;;;;10460335;28;20194;-76
2021/07/06 21:23:06;;;;;;;5.87;1.73;;;;;15.10;100619.00;;;;10443488;28;20260;-76
2021/07/06 21:28:08;;;;;;;3.23;1.53;;;;;15.00;100620.00;;;;10460382;28;20198;-76
2021/07/06 21:33:10;;;;;;;4.30;1.80;;;;;14.90;100618.00;;;;10459432;28;20212;-76
2021/07/06 21:38:12;;;;;;;3.20;1.53;;;;;14.80;100620.00;;;;10411277;28;20194;-76
2021/07/06 21:43:14;;;;;;;6.57;1.70;;;;;14.60;100615.00;;;;10443104;28;20226;-76
2021/07/06 21:48:16;;;;;;;4.10;1.60;;;;;14.50;100606.00;;;;10442859;28;20197;-77
2021/07/06 21:53:17;;;;;;;3.90;1.93;;;;;14.50;100618.00;;;;10425593;28;20205;-76
2021/07/06 21:58:19;;;;;;;6.00;1.80;;;;;14.50;100618.00;;;;10434795;28;20220;-76
2021/07/06 22:03:21;;;;;;;4.17;1.77;;;;;14.60;100619.00;;;;10467238;28;20220;-77
2021/07/06 22:08:23;;;;;;;1.57;1.37;;;;;14.80;100627.00;;;;10467595;28;20219;-76
2021/07/06 22:13:25;;;;;;;6.23;1.80;;;;;14.90;100624.00;;;;10467589;28;20756;-76
2021/07/06 22:18:27;;;;;;;4.20;1.70;;;;;15.10;100627.00;;;;10467009;28;20193;-76
2021/07/06 22:23:29;;;;;;;2.43;1.53;;;;;15.20;100617.00;;;;10454914;28;20222;-77
2021/07/06 22:28:32;;;;;;;6.53;1.67;;;;;15.20;100615.00;;;;10409463;28;20217;-77
2021/07/06 22:33:34;;;;;;;2.70;1.40;;;;;15.20;100615.00;;;;10425203;28;20293;-76
2021/07/06 22:38:36;;;;;;;3.23;1.50;;;;;15.20;100617.00;;;;10424768;28;20202;-77
2021/07/06 22:43:38;;;;;;;5.33;1.70;;;;;15.30;100624.00;;;;10424755;28;20260;-76
2021/07/06 22:48:40;;;;;;;7.37;1.93;;;;;15.30;100626.00;;;;10440914;28;20194;-76
2021/07/06 22:53:41;;;;;;;5.43;1.50;;;;;15.20;100621.00;;;;10421762;28;20271;-76
2021/07/06 22:58:45;;;;;;;3.87;1.83;;;;;15.00;100623.00;;;;10482050;28;20255;-76
2021/07/06 23:03:47;;;;;;;2.93;1.40;;;;;14.80;100616.00;;;;10499485;28;20256;-76
2021/07/06 23:08:49;;;;;;;6.73;1.90;;;;;14.60;100620.00;;;;10482542;28;20235;-77
2021/07/06 23:13:51;;;;;;;5.27;1.60;;;;;14.50;100615.00;;;;10448662;28;20200;-76
2021/07/06 23:18:53;;;;;;;4.00;1.83;;;;;14.50;100618.00;;;;10482101;28;20235;-76
2021/07/06 23:23:55;;;;;;;2.23;1.60;;;;;14.60;100615.00;;;;10465007;28;20221;-76
2021/07/06 23:28:56;;;;;;;4.97;1.60;;;;;14.50;100617.00;;;;10451562;28;20197;-76
2021/07/06 23:33:58;;;;;;;5.40;1.70;;;;;14.50;100615.00;;;;10431361;28;20287;-76
2021/07/06 23:39:01;;;;;;;4.13;1.70;;;;;14.60;100612.00;;;;10440209;28;20194;-77
2021/07/06 23:44:03;;;;;;;7.77;2.23;;;;;14.70;100616.00;;;;10407357;28;20221;-76
2021/07/06 23:49:05;;;;;;;3.90;1.90;;;;;14.70;100609.00;;;;10444499;28;20644;-76
2021/07/06 23:54:08;;;;;;;3.97;1.70;;;;;14.80;100621.00;;;;10464409;28;20186;-76
2021/07/06 23:59:10;;;;;;;3.80;2.13;;;;;14.80;100611.00;;;;10436803;28;20289;-76
